Terminal Aerodrome Forecast
Issued by NWS Jackson, MS

Home | Current Version | Previous Version | Text Only | Print | Product List | Glossary On
Versions: 1 2 3 4 5 6 7 8 9 10 11 12 13 14 15 16 17 18 19
000
FTUS44 KMEG 012300
TAFTUP
TAF
KTUP 012322Z 0200/0224 20005KT P6SM FEW250
     FM021000 22005KT P6SM BKN015
      TEMPO 0211/0214 BKN009
     FM021600 24009KT P6SM SCT035 SCT250=

USA.gov is the U.S. government's official web portal to all federal, state and local government web resources and services.